sensor_id;sensor_type;location;lat;lon;timestamp;P1;durP1;ratioP1;P2;durP2;ratioP2
16153;SDS011;8182;55.648;13.208;2023-06-22T04:15:39;7.10;;;5.13;;
16153;SDS011;8182;55.648;13.208;2023-06-22T04:18:06;7.80;;;4.97;;
16153;SDS011;8182;55.648;13.208;2023-06-22T04:20:33;7.40;;;4.87;;
16153;SDS011;8182;55.648;13.208;2023-06-22T04:59:12;8.40;;;4.83;;
16153;SDS011;8182;55.648;13.208;2023-06-22T05:01:41;11.50;;;4.43;;
16153;SDS011;8182;55.648;13.208;2023-06-22T05:04:11;5.53;;;4.70;;
16153;SDS011;8182;55.648;13.208;2023-06-22T05:06:38;6.77;;;4.67;;
16153;SDS011;8182;55.648;13.208;2023-06-22T05:09:05;9.47;;;4.83;;
16153;SDS011;8182;55.648;13.208;2023-06-22T05:11:32;8.00;;;4.90;;
16153;SDS011;8182;55.648;13.208;2023-06-22T05:13:59;7.70;;;4.70;;
16153;SDS011;8182;55.648;13.208;2023-06-22T05:16:27;7.83;;;5.00;;
16153;SDS011;8182;55.648;13.208;2023-06-22T05:18:54;7.33;;;5.00;;
16153;SDS011;8182;55.648;13.208;2023-06-22T05:21:22;10.50;;;4.60;;
16153;SDS011;8182;55.648;13.208;2023-06-22T05:48:09;6.20;;;4.10;;
16153;SDS011;8182;55.648;13.208;2023-06-22T05:50:36;7.83;;;4.40;;
16153;SDS011;8182;55.648;13.208;2023-06-22T05:53:03;4.57;;;3.73;;
16153;SDS011;8182;55.648;13.208;2023-06-22T05:55:32;9.30;;;4.47;;
16153;SDS011;8182;55.648;13.208;2023-06-22T05:57:59;6.43;;;4.07;;
16153;SDS011;8182;55.648;13.208;2023-06-22T06:00:29;6.83;;;4.20;;
16153;SDS011;8182;55.648;13.208;2023-06-22T06:03:04;5.87;;;4.20;;
16153;SDS011;8182;55.648;13.208;2023-06-22T06:05:35;7.10;;;4.10;;
16153;SDS011;8182;55.648;13.208;2023-06-22T06:08:03;5.87;;;4.00;;
16153;SDS011;8182;55.648;13.208;2023-06-22T06:10:32;6.77;;;4.17;;
16153;SDS011;8182;55.648;13.208;2023-06-22T06:36:02;7.47;;;3.90;;
16153;SDS011;8182;55.648;13.208;2023-06-22T06:38:29;7.37;;;3.93;;
16153;SDS011;8182;55.648;13.208;2023-06-22T06:40:56;5.77;;;3.90;;
16153;SDS011;8182;55.648;13.208;2023-06-22T06:43:24;5.20;;;4.10;;
16153;SDS011;8182;55.648;13.208;2023-06-22T06:56:39;6.17;;;4.10;;
16153;SDS011;8182;55.648;13.208;2023-06-22T06:59:13;6.83;;;3.60;;
16153;SDS011;8182;55.648;13.208;2023-06-22T07:01:40;6.57;;;3.90;;
16153;SDS011;8182;55.648;13.208;2023-06-22T07:04:07;5.60;;;3.80;;
16153;SDS011;8182;55.648;13.208;2023-06-22T07:06:34;4.80;;;3.57;;
16153;SDS011;8182;55.648;13.208;2023-06-22T07:09:02;4.60;;;3.40;;
16153;SDS011;8182;55.648;13.208;2023-06-22T07:11:32;5.10;;;4.00;;
16153;SDS011;8182;55.648;13.208;2023-06-22T07:14:01;5.50;;;3.53;;
16153;SDS011;8182;55.648;13.208;2023-06-22T07:16:28;7.87;;;3.90;;
16153;SDS011;8182;55.648;13.208;2023-06-22T07:18:59;8.53;;;4.10;;
16153;SDS011;8182;55.648;13.208;2023-06-22T07:21:27;5.40;;;3.63;;
16153;SDS011;8182;55.648;13.208;2023-06-22T07:23:54;7.67;;;3.73;;
16153;SDS011;8182;55.648;13.208;2023-06-22T07:26:22;6.17;;;3.60;;
16153;SDS011;8182;55.648;13.208;2023-06-22T07:28:49;7.50;;;3.67;;
16153;SDS011;8182;55.648;13.208;2023-06-22T07:31:20;6.63;;;3.47;;
16153;SDS011;8182;55.648;13.208;2023-06-22T07:33:47;5.00;;;3.33;;
16153;SDS011;8182;55.648;13.208;2023-06-22T07:36:16;6.57;;;3.20;;
16153;SDS011;8182;55.648;13.208;2023-06-22T07:38:43;4.80;;;3.60;;
16153;SDS011;8182;55.648;13.208;2023-06-22T07:41:11;5.50;;;3.30;;
16153;SDS011;8182;55.648;13.208;2023-06-22T07:43:39;5.53;;;3.30;;
16153;SDS011;8182;55.648;13.208;2023-06-22T07:46:06;6.67;;;3.50;;
16153;SDS011;8182;55.648;13.208;2023-06-22T07:48:36;4.87;;;3.40;;
16153;SDS011;8182;55.648;13.208;2023-06-22T07:51:07;6.83;;;3.67;;
16153;SDS011;8182;55.648;13.208;2023-06-22T07:53:34;4.70;;;3.50;;
16153;SDS011;8182;55.648;13.208;2023-06-22T07:56:01;4.77;;;3.07;;
16153;SDS011;8182;55.648;13.208;2023-06-22T07:58:32;6.23;;;3.33;;
16153;SDS011;8182;55.648;13.208;2023-06-22T08:00:59;4.53;;;3.30;;
16153;SDS011;8182;55.648;13.208;2023-06-22T08:03:26;4.53;;;2.90;;
16153;SDS011;8182;55.648;13.208;2023-06-22T08:05:55;6.87;;;3.40;;
16153;SDS011;8182;55.648;13.208;2023-06-22T08:08:22;5.60;;;3.10;;
16153;SDS011;8182;55.648;13.208;2023-06-22T08:10:53;7.10;;;3.67;;
16153;SDS011;8182;55.648;13.208;2023-06-22T08:13:19;6.23;;;3.33;;
16153;SDS011;8182;55.648;13.208;2023-06-22T08:15:47;6.23;;;3.30;;
16153;SDS011;8182;55.648;13.208;2023-06-22T08:18:14;4.90;;;3.27;;
16153;SDS011;8182;55.648;13.208;2023-06-22T08:20:42;6.37;;;3.40;;
16153;SDS011;8182;55.648;13.208;2023-06-22T08:23:11;5.20;;;3.77;;
16153;SDS011;8182;55.648;13.208;2023-06-22T08:25:41;6.40;;;3.20;;
16153;SDS011;8182;55.648;13.208;2023-06-22T08:28:08;4.77;;;3.50;;
16153;SDS011;8182;55.648;13.208;2023-06-22T08:30:35;4.03;;;2.90;;
16153;SDS011;8182;55.648;13.208;2023-06-22T08:33:05;6.00;;;3.37;;
16153;SDS011;8182;55.648;13.208;2023-06-22T08:35:32;5.50;;;3.23;;
16153;SDS011;8182;55.648;13.208;2023-06-22T08:38:02;4.50;;;3.13;;
16153;SDS011;8182;55.648;13.208;2023-06-22T08:40:30;5.70;;;3.50;;
16153;SDS011;8182;55.648;13.208;2023-06-22T08:42:57;6.30;;;3.23;;
16153;SDS011;8182;55.648;13.208;2023-06-22T08:45:24;5.93;;;3.13;;
16153;SDS011;8182;55.648;13.208;2023-06-22T08:47:51;6.43;;;3.13;;
16153;SDS011;8182;55.648;13.208;2023-06-22T08:50:18;5.33;;;3.00;;
16153;SDS011;8182;55.648;13.208;2023-06-22T08:52:48;6.80;;;3.23;;
16153;SDS011;8182;55.648;13.208;2023-06-22T08:55:18;3.83;;;2.97;;
16153;SDS011;8182;55.648;13.208;2023-06-22T08:57:47;6.40;;;3.40;;
16153;SDS011;8182;55.648;13.208;2023-06-22T09:00:16;4.33;;;2.67;;
16153;SDS011;8182;55.648;13.208;2023-06-22T09:02:47;4.50;;;2.97;;
16153;SDS011;8182;55.648;13.208;2023-06-22T09:05:14;3.57;;;3.00;;
16153;SDS011;8182;55.648;13.208;2023-06-22T09:07:47;7.53;;;3.07;;
16153;SDS011;8182;55.648;13.208;2023-06-22T09:10:16;5.47;;;3.20;;
16153;SDS011;8182;55.648;13.208;2023-06-22T09:12:43;6.03;;;3.47;;
16153;SDS011;8182;55.648;13.208;2023-06-22T09:15:12;4.63;;;2.93;;
16153;SDS011;8182;55.648;13.208;2023-06-22T09:17:40;5.20;;;3.00;;
16153;SDS011;8182;55.648;13.208;2023-06-22T09:20:11;5.93;;;3.30;;
16153;SDS011;8182;55.648;13.208;2023-06-22T09:22:39;3.90;;;3.00;;
16153;SDS011;8182;55.648;13.208;2023-06-22T09:25:09;4.90;;;3.07;;
16153;SDS011;8182;55.648;13.208;2023-06-22T09:27:36;7.33;;;3.03;;
16153;SDS011;8182;55.648;13.208;2023-06-22T09:30:04;4.37;;;2.90;;
16153;SDS011;8182;55.648;13.208;2023-06-22T09:32:33;4.77;;;3.00;;
16153;SDS011;8182;55.648;13.208;2023-06-22T09:35:02;6.20;;;3.10;;
16153;SDS011;8182;55.648;13.208;2023-06-22T09:37:32;4.73;;;2.77;;
16153;SDS011;8182;55.648;13.208;2023-06-22T09:39:58;5.37;;;2.93;;
16153;SDS011;8182;55.648;13.208;2023-06-22T09:42:26;4.73;;;2.90;;
16153;SDS011;8182;55.648;13.208;2023-06-22T09:44:56;5.03;;;3.13;;
16153;SDS011;8182;55.648;13.208;2023-06-22T09:47:26;7.13;;;3.10;;
16153;SDS011;8182;55.648;13.208;2023-06-22T09:49:55;4.60;;;3.00;;
16153;SDS011;8182;55.648;13.208;2023-06-22T09:52:24;3.77;;;2.70;;
16153;SDS011;8182;55.648;13.208;2023-06-22T09:54:51;4.13;;;2.63;;
16153;SDS011;8182;55.648;13.208;2023-06-22T09:57:18;5.07;;;2.50;;
16153;SDS011;8182;55.648;13.208;2023-06-22T09:59:46;3.43;;;2.73;;
16153;SDS011;8182;55.648;13.208;2023-06-22T10:02:22;3.30;;;2.73;;
16153;SDS011;8182;55.648;13.208;2023-06-22T10:04:49;2.70;;;2.50;;
16153;SDS011;8182;55.648;13.208;2023-06-22T10:07:17;3.73;;;2.60;;
16153;SDS011;8182;55.648;13.208;2023-06-22T10:09:44;4.20;;;2.37;;
16153;SDS011;8182;55.648;13.208;2023-06-22T10:12:11;4.70;;;2.63;;
16153;SDS011;8182;55.648;13.208;2023-06-22T10:14:38;6.50;;;2.50;;
16153;SDS011;8182;55.648;13.208;2023-06-22T10:17:05;4.23;;;2.53;;
16153;SDS011;8182;55.648;13.208;2023-06-22T10:19:36;5.63;;;2.47;;
16153;SDS011;8182;55.648;13.208;2023-06-22T10:22:03;5.23;;;2.70;;
16153;SDS011;8182;55.648;13.208;2023-06-22T10:24:33;2.77;;;2.47;;
16153;SDS011;8182;55.648;13.208;2023-06-22T10:26:59;3.33;;;2.40;;
16153;SDS011;8182;55.648;13.208;2023-06-22T10:29:26;3.40;;;2.50;;
16153;SDS011;8182;55.648;13.208;2023-06-22T10:31:53;3.47;;;2.57;;
16153;SDS011;8182;55.648;13.208;2023-06-22T10:34:20;4.73;;;2.40;;
16153;SDS011;8182;55.648;13.208;2023-06-22T10:36:47;3.43;;;2.60;;
16153;SDS011;8182;55.648;13.208;2023-06-22T10:39:14;2.80;;;2.23;;
16153;SDS011;8182;55.648;13.208;2023-06-22T10:41:43;3.07;;;2.13;;
16153;SDS011;8182;55.648;13.208;2023-06-22T10:44:11;3.60;;;2.50;;
16153;SDS011;8182;55.648;13.208;2023-06-22T10:46:38;2.83;;;2.40;;
16153;SDS011;8182;55.648;13.208;2023-06-22T10:49:05;2.53;;;2.20;;
16153;SDS011;8182;55.648;13.208;2023-06-22T10:51:32;4.77;;;2.27;;
16153;SDS011;8182;55.648;13.208;2023-06-22T10:53:59;2.60;;;2.23;;
16153;SDS011;8182;55.648;13.208;2023-06-22T10:56:26;2.30;;;2.03;;
16153;SDS011;8182;55.648;13.208;2023-06-22T10:58:55;3.93;;;2.40;;
16153;SDS011;8182;55.648;13.208;2023-06-22T11:01:22;3.30;;;2.30;;
16153;SDS011;8182;55.648;13.208;2023-06-22T11:03:49;2.67;;;2.30;;
16153;SDS011;8182;55.648;13.208;2023-06-22T11:06:16;3.37;;;2.50;;
16153;SDS011;8182;55.648;13.208;2023-06-22T11:08:44;4.60;;;2.27;;
16153;SDS011;8182;55.648;13.208;2023-06-22T11:11:12;3.13;;;2.50;;
16153;SDS011;8182;55.648;13.208;2023-06-22T11:13:39;3.10;;;2.40;;
16153;SDS011;8182;55.648;13.208;2023-06-22T11:16:08;4.57;;;2.47;;
16153;SDS011;8182;55.648;13.208;2023-06-22T11:18:35;3.27;;;2.30;;
16153;SDS011;8182;55.648;13.208;2023-06-22T11:21:02;2.50;;;2.30;;
16153;SDS011;8182;55.648;13.208;2023-06-22T11:23:28;3.17;;;2.47;;
16153;SDS011;8182;55.648;13.208;2023-06-22T11:25:55;6.23;;;2.47;;
16153;SDS011;8182;55.648;13.208;2023-06-22T11:28:22;2.30;;;2.07;;
16153;SDS011;8182;55.648;13.208;2023-06-22T11:30:49;3.27;;;2.57;;
16153;SDS011;8182;55.648;13.208;2023-06-22T11:33:19;2.77;;;2.20;;
16153;SDS011;8182;55.648;13.208;2023-06-22T11:35:47;3.43;;;1.73;;
16153;SDS011;8182;55.648;13.208;2023-06-22T11:38:14;3.97;;;2.43;;
16153;SDS011;8182;55.648;13.208;2023-06-22T11:40:41;3.03;;;2.20;;
16153;SDS011;8182;55.648;13.208;2023-06-22T11:43:08;3.17;;;2.13;;
16153;SDS011;8182;55.648;13.208;2023-06-22T11:45:35;3.37;;;2.10;;
16153;SDS011;8182;55.648;13.208;2023-06-22T11:48:02;3.17;;;2.20;;
16153;SDS011;8182;55.648;13.208;2023-06-22T11:50:31;2.97;;;2.40;;
16153;SDS011;8182;55.648;13.208;2023-06-22T11:53:01;3.30;;;2.00;;
16153;SDS011;8182;55.648;13.208;2023-06-22T11:55:28;3.43;;;2.13;;
16153;SDS011;8182;55.648;13.208;2023-06-22T11:57:56;5.90;;;2.47;;
16153;SDS011;8182;55.648;13.208;2023-06-22T12:00:25;2.97;;;2.30;;
16153;SDS011;8182;55.648;13.208;2023-06-22T12:02:59;4.50;;;2.33;;
16153;SDS011;8182;55.648;13.208;2023-06-22T12:05:31;3.93;;;2.57;;
16153;SDS011;8182;55.648;13.208;2023-06-22T12:07:58;3.60;;;2.40;;
16153;SDS011;8182;55.648;13.208;2023-06-22T12:10:26;4.00;;;2.40;;
16153;SDS011;8182;55.648;13.208;2023-06-22T12:12:53;5.73;;;2.50;;
16153;SDS011;8182;55.648;13.208;2023-06-22T12:15:20;3.20;;;2.40;;
16153;SDS011;8182;55.648;13.208;2023-06-22T12:17:47;3.17;;;2.23;;
16153;SDS011;8182;55.648;13.208;2023-06-22T12:20:14;2.97;;;2.30;;
16153;SDS011;8182;55.648;13.208;2023-06-22T12:22:44;4.40;;;2.40;;
16153;SDS011;8182;55.648;13.208;2023-06-22T12:25:12;2.70;;;2.33;;
16153;SDS011;8182;55.648;13.208;2023-06-22T12:27:40;3.17;;;2.50;;
16153;SDS011;8182;55.648;13.208;2023-06-22T12:30:08;2.70;;;2.50;;
16153;SDS011;8182;55.648;13.208;2023-06-22T12:32:35;2.43;;;2.23;;
16153;SDS011;8182;55.648;13.208;2023-06-22T12:35:02;2.93;;;2.30;;
16153;SDS011;8182;55.648;13.208;2023-06-22T12:37:30;4.03;;;2.47;;
16153;SDS011;8182;55.648;13.208;2023-06-22T12:40:00;2.90;;;2.40;;
16153;SDS011;8182;55.648;13.208;2023-06-22T12:42:28;2.87;;;2.30;;
16153;SDS011;8182;55.648;13.208;2023-06-22T12:44:55;2.90;;;2.30;;
16153;SDS011;8182;55.648;13.208;2023-06-22T12:47:22;4.57;;;2.43;;
16153;SDS011;8182;55.648;13.208;2023-06-22T12:49:50;4.60;;;2.80;;
16153;SDS011;8182;55.648;13.208;2023-06-22T12:52:16;3.27;;;2.57;;
16153;SDS011;8182;55.648;13.208;2023-06-22T12:54:43;3.97;;;2.30;;
16153;SDS011;8182;55.648;13.208;2023-06-22T12:57:12;2.80;;;2.40;;
16153;SDS011;8182;55.648;13.208;2023-06-22T12:59:39;2.90;;;2.53;;
16153;SDS011;8182;55.648;13.208;2023-06-22T13:02:08;6.53;;;2.40;;
16153;SDS011;8182;55.648;13.208;2023-06-22T13:04:38;5.17;;;2.30;;
16153;SDS011;8182;55.648;13.208;2023-06-22T13:07:05;4.43;;;2.50;;
16153;SDS011;8182;55.648;13.208;2023-06-22T13:09:32;2.50;;;2.30;;
16153;SDS011;8182;55.648;13.208;2023-06-22T13:12:01;3.10;;;2.50;;
16153;SDS011;8182;55.648;13.208;2023-06-22T13:14:29;3.10;;;2.33;;
16153;SDS011;8182;55.648;13.208;2023-06-22T13:16:56;3.07;;;2.40;;
16153;SDS011;8182;55.648;13.208;2023-06-22T13:19:23;2.43;;;2.23;;
16153;SDS011;8182;55.648;13.208;2023-06-22T13:21:51;2.90;;;2.20;;
16153;SDS011;8182;55.648;13.208;2023-06-22T13:24:18;4.10;;;2.57;;
16153;SDS011;8182;55.648;13.208;2023-06-22T13:26:44;4.43;;;2.70;;
16153;SDS011;8182;55.648;13.208;2023-06-22T13:29:12;3.23;;;2.30;;
16153;SDS011;8182;55.648;13.208;2023-06-22T13:31:40;4.67;;;2.40;;
16153;SDS011;8182;55.648;13.208;2023-06-22T13:34:12;2.40;;;2.20;;
16153;SDS011;8182;55.648;13.208;2023-06-22T13:36:39;3.03;;;2.27;;
16153;SDS011;8182;55.648;13.208;2023-06-22T13:39:05;2.53;;;2.00;;
16153;SDS011;8182;55.648;13.208;2023-06-22T13:41:32;2.40;;;1.97;;
16153;SDS011;8182;55.648;13.208;2023-06-22T13:43:59;2.30;;;2.10;;
16153;SDS011;8182;55.648;13.208;2023-06-22T13:46:27;2.67;;;1.90;;
16153;SDS011;8182;55.648;13.208;2023-06-22T13:48:56;2.23;;;2.00;;
16153;SDS011;8182;55.648;13.208;2023-06-22T13:51:23;3.37;;;2.47;;
16153;SDS011;8182;55.648;13.208;2023-06-22T13:53:50;2.00;;;1.80;;
16153;SDS011;8182;55.648;13.208;2023-06-22T13:56:17;3.17;;;1.93;;
16153;SDS011;8182;55.648;13.208;2023-06-22T13:58:44;3.20;;;2.10;;
16153;SDS011;8182;55.648;13.208;2023-06-22T14:01:19;5.50;;;2.43;;
16153;SDS011;8182;55.648;13.208;2023-06-22T14:03:47;2.23;;;2.03;;
16153;SDS011;8182;55.648;13.208;2023-06-22T14:06:16;2.83;;;2.20;;
16153;SDS011;8182;55.648;13.208;2023-06-22T14:08:43;4.97;;;2.00;;
16153;SDS011;8182;55.648;13.208;2023-06-22T14:11:10;2.33;;;1.90;;
16153;SDS011;8182;55.648;13.208;2023-06-22T14:13:38;2.07;;;1.87;;
16153;SDS011;8182;55.648;13.208;2023-06-22T14:16:07;2.70;;;2.10;;
16153;SDS011;8182;55.648;13.208;2023-06-22T14:18:34;2.93;;;2.00;;
16153;SDS011;8182;55.648;13.208;2023-06-22T14:21:01;4.27;;;1.80;;
16153;SDS011;8182;55.648;13.208;2023-06-22T14:23:29;3.13;;;1.97;;
16153;SDS011;8182;55.648;13.208;2023-06-22T14:25:57;2.47;;;2.10;;
16153;SDS011;8182;55.648;13.208;2023-06-22T14:28:24;2.33;;;2.00;;
16153;SDS011;8182;55.648;13.208;2023-06-22T14:30:51;2.50;;;1.87;;
16153;SDS011;8182;55.648;13.208;2023-06-22T14:33:19;2.43;;;1.90;;
16153;SDS011;8182;55.648;13.208;2023-06-22T14:35:46;2.87;;;2.20;;
16153;SDS011;8182;55.648;13.208;2023-06-22T14:38:15;2.77;;;1.97;;
16153;SDS011;8182;55.648;13.208;2023-06-22T14:40:44;3.47;;;2.37;;
16153;SDS011;8182;55.648;13.208;2023-06-22T14:43:11;3.13;;;2.10;;
16153;SDS011;8182;55.648;13.208;2023-06-22T14:45:39;2.53;;;2.00;;
16153;SDS011;8182;55.648;13.208;2023-06-22T14:48:07;2.33;;;1.97;;
16153;SDS011;8182;55.648;13.208;2023-06-22T14:50:34;2.67;;;2.30;;
16153;SDS011;8182;55.648;13.208;2023-06-22T14:53:01;4.17;;;2.20;;
16153;SDS011;8182;55.648;13.208;2023-06-22T14:55:29;4.07;;;2.20;;
16153;SDS011;8182;55.648;13.208;2023-06-22T14:57:58;2.97;;;2.20;;
16153;SDS011;8182;55.648;13.208;2023-06-22T15:00:28;2.40;;;2.20;;
16153;SDS011;8182;55.648;13.208;2023-06-22T15:02:55;2.63;;;2.30;;
16153;SDS011;8182;55.648;13.208;2023-06-22T15:05:22;2.33;;;2.03;;
16153;SDS011;8182;55.648;13.208;2023-06-22T15:07:49;3.07;;;2.13;;
16153;SDS011;8182;55.648;13.208;2023-06-22T15:10:16;2.43;;;1.80;;
16153;SDS011;8182;55.648;13.208;2023-06-22T15:12:44;3.50;;;2.13;;
16153;SDS011;8182;55.648;13.208;2023-06-22T15:15:15;4.07;;;2.10;;
16153;SDS011;8182;55.648;13.208;2023-06-22T15:17:51;2.93;;;2.20;;
16153;SDS011;8182;55.648;13.208;2023-06-22T15:20:20;2.77;;;2.30;;
16153;SDS011;8182;55.648;13.208;2023-06-22T15:22:47;3.30;;;2.57;;
16153;SDS011;8182;55.648;13.208;2023-06-22T15:25:15;3.00;;;2.30;;
16153;SDS011;8182;55.648;13.208;2023-06-22T15:27:42;3.30;;;2.23;;
16153;SDS011;8182;55.648;13.208;2023-06-22T15:30:12;2.77;;;2.30;;
16153;SDS011;8182;55.648;13.208;2023-06-22T15:32:41;3.37;;;2.27;;
16153;SDS011;8182;55.648;13.208;2023-06-22T15:35:15;2.30;;;2.10;;
16153;SDS011;8182;55.648;13.208;2023-06-22T15:37:44;2.93;;;2.63;;
16153;SDS011;8182;55.648;13.208;2023-06-22T15:40:11;3.67;;;2.10;;
16153;SDS011;8182;55.648;13.208;2023-06-22T15:42:38;2.80;;;2.40;;
16153;SDS011;8182;55.648;13.208;2023-06-22T15:45:08;4.30;;;2.30;;
16153;SDS011;8182;55.648;13.208;2023-06-22T15:47:36;3.50;;;2.33;;
16153;SDS011;8182;55.648;13.208;2023-06-22T15:50:04;2.57;;;2.37;;
16153;SDS011;8182;55.648;13.208;2023-06-22T15:52:32;2.97;;;2.23;;
16153;SDS011;8182;55.648;13.208;2023-06-22T15:54:59;2.63;;;2.20;;
16153;SDS011;8182;55.648;13.208;2023-06-22T15:57:26;2.87;;;2.40;;
16153;SDS011;8182;55.648;13.208;2023-06-22T15:59:54;2.97;;;2.33;;
16153;SDS011;8182;55.648;13.208;2023-06-22T16:02:21;3.53;;;2.20;;
16153;SDS011;8182;55.648;13.208;2023-06-22T16:04:48;3.13;;;2.30;;
16153;SDS011;8182;55.648;13.208;2023-06-22T16:07:17;2.33;;;2.13;;
16153;SDS011;8182;55.648;13.208;2023-06-22T16:09:44;3.47;;;2.40;;
16153;SDS011;8182;55.648;13.208;2023-06-22T16:12:11;4.33;;;2.40;;
16153;SDS011;8182;55.648;13.208;2023-06-22T16:14:38;5.00;;;2.37;;
16153;SDS011;8182;55.648;13.208;2023-06-22T16:17:06;3.67;;;2.10;;
16153;SDS011;8182;55.648;13.208;2023-06-22T16:19:34;2.80;;;2.10;;
16153;SDS011;8182;55.648;13.208;2023-06-22T16:22:01;3.10;;;2.40;;
16153;SDS011;8182;55.648;13.208;2023-06-22T16:24:33;3.43;;;2.10;;
16153;SDS011;8182;55.648;13.208;2023-06-22T16:27:00;5.93;;;2.33;;
16153;SDS011;8182;55.648;13.208;2023-06-22T16:29:27;2.93;;;2.60;;
16153;SDS011;8182;55.648;13.208;2023-06-22T16:31:54;2.73;;;2.50;;
16153;SDS011;8182;55.648;13.208;2023-06-22T16:34:21;3.40;;;2.20;;
16153;SDS011;8182;55.648;13.208;2023-06-22T16:36:51;3.40;;;2.50;;
16153;SDS011;8182;55.648;13.208;2023-06-22T16:39:18;3.13;;;2.57;;
16153;SDS011;8182;55.648;13.208;2023-06-22T16:41:46;4.80;;;2.50;;
16153;SDS011;8182;55.648;13.208;2023-06-22T16:44:14;4.23;;;2.47;;
16153;SDS011;8182;55.648;13.208;2023-06-22T16:46:41;3.57;;;2.50;;
16153;SDS011;8182;55.648;13.208;2023-06-22T16:49:09;3.00;;;2.40;;
16153;SDS011;8182;55.648;13.208;2023-06-22T16:51:36;3.33;;;2.60;;
16153;SDS011;8182;55.648;13.208;2023-06-22T16:54:03;3.57;;;2.40;;
16153;SDS011;8182;55.648;13.208;2023-06-22T16:56:31;4.93;;;2.40;;
16153;SDS011;8182;55.648;13.208;2023-06-22T16:58:59;2.53;;;2.33;;
16153;SDS011;8182;55.648;13.208;2023-06-22T17:01:26;3.23;;;2.57;;
16153;SDS011;8182;55.648;13.208;2023-06-22T17:04:00;2.57;;;2.37;;
16153;SDS011;8182;55.648;13.208;2023-06-22T17:06:30;3.47;;;2.60;;
16153;SDS011;8182;55.648;13.208;2023-06-22T17:08:58;4.00;;;2.50;;
16153;SDS011;8182;55.648;13.208;2023-06-22T17:11:28;2.83;;;2.40;;
16153;SDS011;8182;55.648;13.208;2023-06-22T17:13:55;4.33;;;2.50;;
16153;SDS011;8182;55.648;13.208;2023-06-22T17:16:24;5.47;;;2.40;;
16153;SDS011;8182;55.648;13.208;2023-06-22T17:18:53;2.50;;;2.30;;
16153;SDS011;8182;55.648;13.208;2023-06-22T17:21:21;2.63;;;2.30;;
16153;SDS011;8182;55.648;13.208;2023-06-22T17:23:48;3.87;;;2.80;;
16153;SDS011;8182;55.648;13.208;2023-06-22T17:26:16;2.97;;;2.30;;
16153;SDS011;8182;55.648;13.208;2023-06-22T17:28:47;3.00;;;2.67;;
16153;SDS011;8182;55.648;13.208;2023-06-22T17:31:15;4.80;;;2.70;;
16153;SDS011;8182;55.648;13.208;2023-06-22T17:33:45;2.67;;;2.20;;
16153;SDS011;8182;55.648;13.208;2023-06-22T17:36:15;2.90;;;2.40;;
16153;SDS011;8182;55.648;13.208;2023-06-22T17:38:41;4.80;;;2.50;;
16153;SDS011;8182;55.648;13.208;2023-06-22T17:41:09;3.80;;;2.67;;
16153;SDS011;8182;55.648;13.208;2023-06-22T17:43:42;3.17;;;2.50;;
16153;SDS011;8182;55.648;13.208;2023-06-22T17:46:11;10.07;;;2.60;;
16153;SDS011;8182;55.648;13.208;2023-06-22T17:48:42;5.03;;;2.60;;
16153;SDS011;8182;55.648;13.208;2023-06-22T17:51:13;3.33;;;2.60;;
16153;SDS011;8182;55.648;13.208;2023-06-22T17:53:46;4.83;;;2.67;;
16153;SDS011;8182;55.648;13.208;2023-06-22T17:56:14;4.90;;;2.60;;
16153;SDS011;8182;55.648;13.208;2023-06-22T17:58:49;3.70;;;2.47;;
16153;SDS011;8182;55.648;13.208;2023-06-22T18:01:29;5.43;;;2.83;;
16153;SDS011;8182;55.648;13.208;2023-06-22T18:04:00;2.80;;;2.50;;
16153;SDS011;8182;55.648;13.208;2023-06-22T18:06:31;3.50;;;2.40;;
16153;SDS011;8182;55.648;13.208;2023-06-22T18:09:02;4.30;;;2.80;;
16153;SDS011;8182;55.648;13.208;2023-06-22T18:11:34;3.20;;;2.90;;
16153;SDS011;8182;55.648;13.208;2023-06-22T18:14:09;7.50;;;4.50;;
16153;SDS011;8182;55.648;13.208;2023-06-22T18:16:40;7.30;;;5.20;;
16153;SDS011;8182;55.648;13.208;2023-06-22T18:19:10;5.30;;;3.50;;
16153;SDS011;8182;55.648;13.208;2023-06-22T18:21:39;5.60;;;3.20;;
16153;SDS011;8182;55.648;13.208;2023-06-22T18:24:07;6.03;;;2.67;;
16153;SDS011;8182;55.648;13.208;2023-06-22T18:26:34;3.23;;;2.47;;
16153;SDS011;8182;55.648;13.208;2023-06-22T18:29:03;3.80;;;2.70;;
16153;SDS011;8182;55.648;13.208;2023-06-22T18:31:34;4.47;;;2.70;;
16153;SDS011;8182;55.648;13.208;2023-06-22T18:34:02;3.70;;;2.80;;
16153;SDS011;8182;55.648;13.208;2023-06-22T18:36:34;3.33;;;2.77;;
16153;SDS011;8182;55.648;13.208;2023-06-22T18:39:07;4.40;;;2.83;;
16153;SDS011;8182;55.648;13.208;2023-06-22T18:41:37;4.33;;;2.60;;
16153;SDS011;8182;55.648;13.208;2023-06-22T18:44:10;2.93;;;2.60;;
16153;SDS011;8182;55.648;13.208;2023-06-22T18:46:41;4.57;;;2.50;;
16153;SDS011;8182;55.648;13.208;2023-06-22T18:49:11;3.80;;;2.80;;
16153;SDS011;8182;55.648;13.208;2023-06-22T18:51:51;4.47;;;2.60;;
16153;SDS011;8182;55.648;13.208;2023-06-22T18:54:29;5.13;;;2.67;;
16153;SDS011;8182;55.648;13.208;2023-06-22T18:57:00;3.27;;;2.60;;
16153;SDS011;8182;55.648;13.208;2023-06-22T18:59:47;2.90;;;2.70;;
16153;SDS011;8182;55.648;13.208;2023-06-22T19:02:39;4.90;;;3.10;;
16153;SDS011;8182;55.648;13.208;2023-06-22T19:05:09;3.13;;;2.83;;
16153;SDS011;8182;55.648;13.208;2023-06-22T19:10:28;3.30;;;2.70;;
16153;SDS011;8182;55.648;13.208;2023-06-22T19:15:46;3.17;;;2.77;;
16153;SDS011;8182;55.648;13.208;2023-06-22T19:18:18;2.93;;;2.73;;
16153;SDS011;8182;55.648;13.208;2023-06-22T19:20:46;4.43;;;2.73;;
16153;SDS011;8182;55.648;13.208;2023-06-22T19:23:23;3.27;;;2.97;;
16153;SDS011;8182;55.648;13.208;2023-06-22T19:25:51;2.70;;;2.50;;
16153;SDS011;8182;55.648;13.208;2023-06-22T19:28:22;3.00;;;2.70;;
16153;SDS011;8182;55.648;13.208;2023-06-22T19:30:51;3.20;;;2.80;;
16153;SDS011;8182;55.648;13.208;2023-06-22T19:33:20;3.17;;;2.88;;
16153;SDS011;8182;55.648;13.208;2023-06-22T19:35:48;4.20;;;3.00;;
16153;SDS011;8182;55.648;13.208;2023-06-22T19:38:16;3.03;;;2.60;;
16153;SDS011;8182;55.648;13.208;2023-06-22T19:40:45;3.63;;;3.00;;
16153;SDS011;8182;55.648;13.208;2023-06-22T19:43:12;4.20;;;2.83;;
16153;SDS011;8182;55.648;13.208;2023-06-22T19:45:40;4.03;;;3.00;;
16153;SDS011;8182;55.648;13.208;2023-06-22T19:48:07;3.93;;;2.67;;
16153;SDS011;8182;55.648;13.208;2023-06-22T19:50:35;3.20;;;2.90;;
16153;SDS011;8182;55.648;13.208;2023-06-22T19:53:06;3.93;;;3.20;;
16153;SDS011;8182;55.648;13.208;2023-06-22T19:55:35;3.33;;;2.67;;
16153;SDS011;8182;55.648;13.208;2023-06-22T19:58:06;4.50;;;2.80;;
16153;SDS011;8182;55.648;13.208;2023-06-22T20:00:34;5.00;;;3.00;;
16153;SDS011;8182;55.648;13.208;2023-06-22T20:03:01;3.77;;;3.10;;
16153;SDS011;8182;55.648;13.208;2023-06-22T20:05:29;3.30;;;3.00;;
16153;SDS011;8182;55.648;13.208;2023-06-22T20:07:56;4.37;;;2.83;;
16153;SDS011;8182;55.648;13.208;2023-06-22T20:10:33;3.70;;;3.10;;
16153;SDS011;8182;55.648;13.208;2023-06-22T20:13:05;3.43;;;2.90;;
16153;SDS011;8182;55.648;13.208;2023-06-22T20:15:41;3.23;;;2.93;;
16153;SDS011;8182;55.648;13.208;2023-06-22T20:18:08;4.47;;;3.00;;
16153;SDS011;8182;55.648;13.208;2023-06-22T20:20:36;3.27;;;2.97;;
16153;SDS011;8182;55.648;13.208;2023-06-22T20:23:05;3.63;;;3.20;;
16153;SDS011;8182;55.648;13.208;2023-06-22T20:25:35;3.77;;;3.40;;
16153;SDS011;8182;55.648;13.208;2023-06-22T20:28:03;6.80;;;3.70;;
16153;SDS011;8182;55.648;13.208;2023-06-22T20:30:35;7.20;;;3.10;;
16153;SDS011;8182;55.648;13.208;2023-06-22T20:33:04;6.70;;;3.57;;
16153;SDS011;8182;55.648;13.208;2023-06-22T20:35:39;4.30;;;3.60;;
16153;SDS011;8182;55.648;13.208;2023-06-22T20:38:06;5.17;;;3.70;;
16153;SDS011;8182;55.648;13.208;2023-06-22T20:40:33;6.43;;;3.50;;
16153;SDS011;8182;55.648;13.208;2023-06-22T20:43:00;4.90;;;3.67;;
16153;SDS011;8182;55.648;13.208;2023-06-22T20:45:28;4.53;;;3.63;;
16153;SDS011;8182;55.648;13.208;2023-06-22T20:47:57;4.57;;;3.50;;
16153;SDS011;8182;55.648;13.208;2023-06-22T20:50:24;4.27;;;3.87;;